createdAt,value
2023-09-08T00:00:26.474Z,33.80
2023-09-08T00:02:53.256Z,34.07
2023-09-08T00:05:19.897Z,33.77
2023-09-08T00:07:46.620Z,34.18
2023-09-08T00:10:13.355Z,33.76
2023-09-08T00:12:40.461Z,33.97
2023-09-08T00:15:08.156Z,34.01
2023-09-08T00:17:34.880Z,33.97
2023-09-08T00:20:01.669Z,34.24
2023-09-08T00:22:28.404Z,34.17
2023-09-08T00:24:56.044Z,34.42
2023-09-08T00:27:22.743Z,34.07
2023-09-08T00:29:49.444Z,34.00
2023-09-08T00:32:17.104Z,34.43
2023-09-08T00:34:44.571Z,34.53
2023-09-08T00:37:11.686Z,34.28
2023-09-08T00:39:40.242Z,34.73
2023-09-08T00:42:08.132Z,34.84
2023-09-08T00:44:35.294Z,34.99
2023-09-08T00:47:02.037Z,34.66
2023-09-08T00:49:29.759Z,34.82
2023-09-08T00:51:56.870Z,34.58
2023-09-08T00:54:23.558Z,34.78
2023-09-08T00:56:56.545Z,35.00
2023-09-08T00:59:23.627Z,34.89
2023-09-08T01:01:50.359Z,34.93
2023-09-08T01:04:17.330Z,35.05
2023-09-08T01:06:46.227Z,35.46
2023-09-08T01:09:14.453Z,35.12
2023-09-08T01:11:41.314Z,35.14
2023-09-08T01:14:08.836Z,35.27
2023-09-08T01:16:35.909Z,35.17
2023-09-08T01:19:05.932Z,35.01
2023-09-08T01:22:08.229Z,35.44
2023-09-08T01:24:56.670Z,35.54
2023-09-08T01:27:26.136Z,35.38
2023-09-08T01:29:55.076Z,35.42
2023-09-08T01:32:22.174Z,35.60
2023-09-08T01:34:48.916Z,35.53
2023-09-08T01:37:15.604Z,35.42
2023-09-08T01:39:42.246Z,35.67
2023-09-08T01:42:08.950Z,35.58
2023-09-08T01:44:37.281Z,35.55
2023-09-08T01:47:04.178Z,35.53
2023-09-08T01:49:30.842Z,35.61
2023-09-08T01:51:58.993Z,35.74
2023-09-08T01:54:25.732Z,35.68
2023-09-08T01:56:52.530Z,35.46
2023-09-08T01:59:19.226Z,35.76
2023-09-08T02:01:45.993Z,35.49
2023-09-08T02:04:12.757Z,35.73
2023-09-08T02:06:39.501Z,35.79
2023-09-08T02:09:06.144Z,36.01
2023-09-08T02:11:32.810Z,35.91
2023-09-08T02:13:59.936Z,36.06
2023-09-08T02:16:26.776Z,36.10
2023-09-08T02:18:53.537Z,36.07
2023-09-08T02:21:20.731Z,35.67
2023-09-08T02:23:47.387Z,35.97
2023-09-08T02:26:14.224Z,36.22
2023-09-08T02:28:41.043Z,35.78
2023-09-08T02:31:08.017Z,35.98
2023-09-08T02:33:34.756Z,36.55
2023-09-08T02:36:08.491Z,36.20
2023-09-08T02:38:38.693Z,36.34
2023-09-08T02:41:06.061Z,36.23
2023-09-08T02:43:32.799Z,36.50
2023-09-08T02:45:59.553Z,36.22
2023-09-08T02:48:26.698Z,36.08
2023-09-08T02:50:54.987Z,36.26
2023-09-08T02:53:21.936Z,36.63
2023-09-08T02:55:48.562Z,36.62
2023-09-08T02:58:15.298Z,36.61
2023-09-08T03:00:41.951Z,36.66
2023-09-08T03:03:09.133Z,36.60
2023-09-08T03:05:36.532Z,36.53
2023-09-08T03:08:03.502Z,36.72
2023-09-08T03:10:30.398Z,36.81
2023-09-08T03:12:57.915Z,36.58
2023-09-08T03:15:24.717Z,36.73
2023-09-08T03:17:51.480Z,36.99
2023-09-08T03:20:18.279Z,36.80
2023-09-08T03:22:45.002Z,36.97
2023-09-08T03:25:11.655Z,36.79
2023-09-08T03:27:38.406Z,36.92
2023-09-08T03:30:05.791Z,37.19
2023-09-08T03:32:33.047Z,37.35
2023-09-08T03:35:00.906Z,37.09
2023-09-08T03:37:28.025Z,37.13
2023-09-08T03:39:54.761Z,37.25
2023-09-08T03:42:21.731Z,37.18
2023-09-08T03:44:48.914Z,37.36
2023-09-08T03:47:15.791Z,37.30
2023-09-08T03:49:42.561Z,37.41
2023-09-08T03:52:09.273Z,37.58
2023-09-08T03:54:35.953Z,37.38
2023-09-08T03:57:02.651Z,37.70
2023-09-08T03:59:29.280Z,37.44
2023-09-08T04:01:55.980Z,37.87
2023-09-08T04:04:23.306Z,37.42
2023-09-08T04:06:50.024Z,37.66
2023-09-08T04:09:16.814Z,37.74
2023-09-08T04:11:43.545Z,37.67
2023-09-08T04:14:10.275Z,37.60
2023-09-08T04:16:37.099Z,37.76
2023-09-08T04:19:04.911Z,37.80
2023-09-08T04:21:31.968Z,37.58
2023-09-08T04:23:58.723Z,37.57
2023-09-08T04:26:26.064Z,37.81
2023-09-08T04:28:52.768Z,37.87
2023-09-08T04:31:20.649Z,37.78
2023-09-08T04:33:47.421Z,37.83
2023-09-08T04:36:14.616Z,37.83
2023-09-08T04:38:42.803Z,37.71
2023-09-08T04:41:10.675Z,38.14
2023-09-08T04:43:37.549Z,37.73
2023-09-08T04:46:04.889Z,37.81
2023-09-08T04:48:32.175Z,38.01
2023-09-08T04:50:59.269Z,37.81
2023-09-08T04:53:26.620Z,38.07
2023-09-08T04:55:53.421Z,37.81
2023-09-08T04:58:20.169Z,38.03
2023-09-08T05:00:47.575Z,38.27
2023-09-08T05:03:14.384Z,38.04
2023-09-08T05:05:41.268Z,37.98
2023-09-08T05:08:08.106Z,38.17
2023-09-08T05:10:35.635Z,38.14
2023-09-08T05:13:02.354Z,38.08
2023-09-08T05:15:29.289Z,38.12
2023-09-08T05:17:56.014Z,38.34
2023-09-08T05:20:23.525Z,38.63
2023-09-08T05:22:50.447Z,38.16
2023-09-08T05:25:17.928Z,38.42
2023-09-08T05:27:46.821Z,38.47
2023-09-08T05:30:14.076Z,38.46
2023-09-08T05:32:41.602Z,38.45
2023-09-08T05:35:09.277Z,38.46
2023-09-08T05:37:36.014Z,38.54
2023-09-08T05:40:04.842Z,38.46
2023-09-08T05:42:31.664Z,38.55
2023-09-08T05:44:58.420Z,38.53
2023-09-08T05:47:25.161Z,38.71
2023-09-08T05:49:52.614Z,38.67
2023-09-08T05:52:19.454Z,38.49
2023-09-08T05:54:47.250Z,38.62
2023-09-08T05:57:32.612Z,38.76
2023-09-08T05:59:59.565Z,38.72
2023-09-08T06:02:26.428Z,38.86
2023-09-08T06:04:53.129Z,38.69
2023-09-08T06:07:19.869Z,38.55
2023-09-08T06:09:46.629Z,38.88
2023-09-08T06:12:13.452Z,38.81
2023-09-08T06:14:42.065Z,38.94
2023-09-08T06:17:11.246Z,38.96
2023-09-08T06:19:38.068Z,39.01
2023-09-08T06:22:04.878Z,39.14
2023-09-08T06:24:31.844Z,39.09
2023-09-08T06:26:58.802Z,39.21
2023-09-08T06:29:25.569Z,39.02
2023-09-08T06:31:52.316Z,39.19
2023-09-08T06:34:22.780Z,39.28
2023-09-08T06:36:50.485Z,39.31
2023-09-08T06:39:17.305Z,39.25
2023-09-08T06:41:44.205Z,39.47
2023-09-08T06:44:14.755Z,39.30
2023-09-08T06:46:41.828Z,39.46
2023-09-08T06:49:09.054Z,39.43
2023-09-08T06:51:36.098Z,39.46
2023-09-08T06:54:04.100Z,39.75
2023-09-08T06:56:37.844Z,39.56
2023-09-08T06:59:05.595Z,39.75
2023-09-08T07:01:33.110Z,39.75
2023-09-08T07:04:00.567Z,39.84
2023-09-08T07:06:27.933Z,39.82
2023-09-08T07:08:56.747Z,39.81
2023-09-08T07:11:23.521Z,40.20
2023-09-08T07:13:50.927Z,40.15
2023-09-08T07:16:17.799Z,40.29
2023-09-08T07:18:44.924Z,40.04
2023-09-08T07:21:11.925Z,40.20
2023-09-08T07:23:39.402Z,40.33
2023-09-08T07:26:08.560Z,40.55
2023-09-08T07:28:35.921Z,40.42
2023-09-08T07:31:06.534Z,40.05
2023-09-08T07:33:38.130Z,40.09
2023-09-08T07:36:06.973Z,40.02
2023-09-08T07:38:34.627Z,40.07
2023-09-08T07:41:04.858Z,40.08
2023-09-08T07:43:32.450Z,39.98
2023-09-08T07:45:59.544Z,39.68
2023-09-08T07:48:26.598Z,39.73
2023-09-08T07:50:53.569Z,39.62
2023-09-08T07:53:20.330Z,39.64
2023-09-08T07:55:47.112Z,39.46
2023-09-08T07:58:13.811Z,39.46
2023-09-08T08:00:42.090Z,39.21
2023-09-08T08:03:09.726Z,37.13
2023-09-08T08:05:37.209Z,33.47
2023-09-08T08:08:04.100Z,29.76
2023-09-08T08:10:31.424Z,26.81
2023-09-08T08:12:58.303Z,24.27
2023-09-08T08:15:39.385Z,22.33
2023-09-08T08:18:07.385Z,20.87
2023-09-08T08:20:37.731Z,19.79
2023-09-08T08:23:06.273Z,18.47
2023-09-08T08:25:33.788Z,17.52
2023-09-08T08:28:02.080Z,16.90
2023-09-08T08:30:29.499Z,16.31
2023-09-08T08:32:56.531Z,16.08
2023-09-08T08:35:23.445Z,15.50
2023-09-08T08:38:08.600Z,14.85
2023-09-08T08:40:39.459Z,14.56
2023-09-08T08:43:06.489Z,14.65
2023-09-08T08:45:34.068Z,14.42
2023-09-08T08:51:03.722Z,14.50
2023-09-08T08:53:33.442Z,14.53
2023-09-08T08:56:02.478Z,14.08
2023-09-08T08:58:32.423Z,14.19
2023-09-08T09:01:01.076Z,13.96
2023-09-08T09:03:29.428Z,14.02
2023-09-08T09:05:56.264Z,13.71
2023-09-08T09:08:27.706Z,13.35
2023-09-08T09:11:14.466Z,13.59
2023-09-08T09:13:41.936Z,13.65
2023-09-08T09:16:14.703Z,13.34
2023-09-08T09:19:11.518Z,12.89
2023-09-08T09:21:52.264Z,13.04
2023-09-08T09:24:30.685Z,12.92
2023-09-08T09:26:58.264Z,12.92
2023-09-08T09:29:24.977Z,12.86
2023-09-08T09:32:07.773Z,12.20
2023-09-08T09:35:04.758Z,12.43
2023-09-08T09:37:32.260Z,13.12
2023-09-08T09:40:01.089Z,12.86
2023-09-08T09:42:29.392Z,13.36
2023-09-08T09:44:56.297Z,13.30
2023-09-08T09:47:23.695Z,13.66
2023-09-08T09:49:50.707Z,14.01
2023-09-08T09:52:27.210Z,13.85
2023-09-08T09:54:58.049Z,14.06
2023-09-08T09:57:26.014Z,14.07
2023-09-08T09:59:54.817Z,14.46
2023-09-08T10:02:22.773Z,14.70
2023-09-08T10:04:51.358Z,15.07
2023-09-08T10:07:19.075Z,15.20
2023-09-08T10:09:46.264Z,15.45
2023-09-08T10:12:16.998Z,16.15
2023-09-08T10:14:44.760Z,16.24
2023-09-08T10:17:17.517Z,16.70
2023-09-08T10:19:51.429Z,17.10
2023-09-08T10:22:23.694Z,17.03
2023-09-08T10:24:54.900Z,17.43
2023-09-08T10:27:23.382Z,17.42
2023-09-08T10:29:51.192Z,17.63
2023-09-08T10:32:19.637Z,18.15
2023-09-08T10:34:47.251Z,18.30
2023-09-08T10:37:28.914Z,18.65
2023-09-08T10:39:55.912Z,19.50
2023-09-08T10:42:30.527Z,19.95
2023-09-08T10:45:00.191Z,19.61
2023-09-08T10:47:31.887Z,20.16
2023-09-08T10:50:01.537Z,20.00
2023-09-08T10:52:28.697Z,20.21
2023-09-08T10:54:56.966Z,20.88
2023-09-08T10:57:26.412Z,20.66
2023-09-08T10:59:53.638Z,20.77
2023-09-08T11:02:40.173Z,21.18
2023-09-08T11:05:15.013Z,20.86
2023-09-08T11:07:44.524Z,21.15
2023-09-08T11:10:12.627Z,21.19
2023-09-08T11:12:39.736Z,21.01
2023-09-08T11:15:09.720Z,20.59
2023-09-08T11:17:43.666Z,20.60
2023-09-08T11:20:11.955Z,20.80
2023-09-08T11:22:40.598Z,20.73
2023-09-08T11:25:09.065Z,21.23
2023-09-08T11:27:36.118Z,21.59
2023-09-08T11:30:03.132Z,21.68
2023-09-08T11:32:34.325Z,21.27
2023-09-08T11:35:10.291Z,21.25
2023-09-08T11:37:43.719Z,21.50
2023-09-08T11:40:13.652Z,21.90
2023-09-08T11:42:45.251Z,22.06
2023-09-08T11:45:19.378Z,21.74
2023-09-08T11:47:46.378Z,22.25
2023-09-08T11:50:16.902Z,21.97
2023-09-08T11:52:50.347Z,22.60
2023-09-08T11:55:18.460Z,22.26
2023-09-08T11:57:47.905Z,22.31
2023-09-08T12:00:18.443Z,21.75
2023-09-08T12:02:46.510Z,22.03
2023-09-08T12:05:26.369Z,22.57
2023-09-08T12:07:54.970Z,22.36
2023-09-08T12:10:23.021Z,22.58
2023-09-08T12:12:54.710Z,22.53
2023-09-08T12:15:51.204Z,22.97
2023-09-08T12:18:18.311Z,23.08
2023-09-08T12:20:45.873Z,22.77
2023-09-08T12:23:22.736Z,22.87
2023-09-08T12:25:51.803Z,22.54
2023-09-08T12:28:20.512Z,22.92
2023-09-08T12:30:47.952Z,22.96
2023-09-08T12:33:16.354Z,22.94
2023-09-08T12:35:49.438Z,23.18
2023-09-08T12:38:16.201Z,23.46
2023-09-08T12:40:42.903Z,23.44
2023-09-08T12:43:21.256Z,23.65
2023-09-08T12:45:54.542Z,23.70
2023-09-08T12:48:21.333Z,23.60
2023-09-08T12:50:49.422Z,23.93
2023-09-08T12:53:18.176Z,24.07
2023-09-08T12:55:45.083Z,23.87
2023-09-08T12:58:11.708Z,24.09
2023-09-08T13:00:38.474Z,24.36
2023-09-08T13:03:05.697Z,24.21
2023-09-08T13:05:35.379Z,24.43
2023-09-08T13:08:02.152Z,24.74
2023-09-08T13:10:28.992Z,24.98
2023-09-08T13:12:56.001Z,25.30
2023-09-08T13:15:24.994Z,24.64
2023-09-08T13:17:52.435Z,24.41
2023-09-08T13:20:19.550Z,24.37
2023-09-08T13:22:46.406Z,24.48
2023-09-08T13:25:13.234Z,24.31
2023-09-08T13:27:45.885Z,24.31
2023-09-08T13:30:14.955Z,24.38
2023-09-08T13:32:42.039Z,24.53
2023-09-08T13:35:09.277Z,24.91
2023-09-08T13:37:36.005Z,24.55
2023-09-08T13:40:05.661Z,25.00
2023-09-08T13:42:33.591Z,25.19
2023-09-08T13:45:00.710Z,24.94
2023-09-08T13:47:28.818Z,25.47
2023-09-08T13:49:58.380Z,25.21
2023-09-08T13:52:27.568Z,25.23
2023-09-08T13:55:19.255Z,25.30
2023-09-08T13:57:43.671Z,25.20
2023-09-08T14:00:16.377Z,25.37
2023-09-08T14:02:49.463Z,25.28
2023-09-08T14:05:19.483Z,25.29
2023-09-08T14:07:55.972Z,25.11
2023-09-08T14:12:54.429Z,25.22
2023-09-08T14:15:23.959Z,25.07
2023-09-08T14:17:51.496Z,24.94
2023-09-08T14:20:18.160Z,24.89
2023-09-08T14:22:45.002Z,24.65
2023-09-08T14:25:11.728Z,25.57
2023-09-08T14:27:38.952Z,25.30
2023-09-08T14:30:06.943Z,25.67
2023-09-08T14:32:33.867Z,25.15
2023-09-08T14:35:00.547Z,24.97
2023-09-08T14:37:48.680Z,25.23
2023-09-08T14:40:16.450Z,25.07
2023-09-08T14:42:43.162Z,24.93
2023-09-08T14:45:10.371Z,25.18
2023-09-08T14:47:37.241Z,24.72
2023-09-08T14:50:04.537Z,24.87
2023-09-08T14:52:31.319Z,24.78
2023-09-08T14:54:58.258Z,24.89
2023-09-08T14:57:24.981Z,24.54
2023-09-08T14:59:55.384Z,24.37
2023-09-08T15:02:23.649Z,24.66
2023-09-08T15:04:50.539Z,24.59
2023-09-08T15:07:17.471Z,24.64
2023-09-08T15:09:44.141Z,24.74
2023-09-08T15:12:11.262Z,24.92
2023-09-08T15:14:37.946Z,25.07
2023-09-08T15:17:06.268Z,24.48
2023-09-08T15:19:33.428Z,24.69
2023-09-08T15:22:00.337Z,24.56
2023-09-08T15:24:27.066Z,24.94
2023-09-08T15:26:54.723Z,24.83
2023-09-08T15:29:21.541Z,24.65
2023-09-08T15:31:49.961Z,24.67
2023-09-08T15:34:16.905Z,24.50
2023-09-08T15:36:43.682Z,24.44
2023-09-08T15:39:10.442Z,24.21
2023-09-08T15:41:37.172Z,24.23
2023-09-08T15:44:04.170Z,24.23
2023-09-08T15:46:31.137Z,24.53
2023-09-08T15:48:57.965Z,24.56
2023-09-08T15:51:24.674Z,24.89
2023-09-08T15:53:51.490Z,24.57
2023-09-08T15:56:18.267Z,24.90
2023-09-08T15:58:45.073Z,25.35
2023-09-08T16:01:13.321Z,24.78
2023-09-08T16:03:40.862Z,25.14
2023-09-08T16:06:09.286Z,25.52
2023-09-08T16:08:37.828Z,25.34
2023-09-08T16:11:04.563Z,25.21
2023-09-08T16:13:32.481Z,25.94
2023-09-08T16:16:00.162Z,25.61
2023-09-08T16:18:27.276Z,26.22
2023-09-08T16:20:54.101Z,26.14
2023-09-08T16:23:21.474Z,26.25
2023-09-08T16:25:48.169Z,26.02
2023-09-08T16:28:14.871Z,26.18
2023-09-08T16:30:41.805Z,26.41
2023-09-08T16:33:08.691Z,26.42
2023-09-08T16:35:35.960Z,27.06
2023-09-08T16:38:03.551Z,26.82
2023-09-08T16:40:30.200Z,27.21
2023-09-08T16:43:17.384Z,27.45
2023-09-08T16:45:45.449Z,27.49
2023-09-08T16:48:14.739Z,27.65
2023-09-08T16:50:41.497Z,27.76
2023-09-08T16:53:09.266Z,28.03
2023-09-08T16:55:36.099Z,28.37
2023-09-08T16:58:02.941Z,28.12
2023-09-08T17:00:29.786Z,28.12
2023-09-08T17:02:56.631Z,28.35
2023-09-08T17:05:23.569Z,28.70
2023-09-08T17:07:52.212Z,28.44
2023-09-08T17:10:19.226Z,28.50
2023-09-08T17:12:46.201Z,28.38
2023-09-08T17:15:13.026Z,28.51
2023-09-08T17:17:40.348Z,28.32
2023-09-08T17:20:09.092Z,28.44
2023-09-08T17:22:36.167Z,28.64
2023-09-08T17:25:04.263Z,28.59
2023-09-08T17:27:32.095Z,28.75
2023-09-08T17:30:00.390Z,29.42
2023-09-08T17:32:27.413Z,29.20
2023-09-08T17:34:55.555Z,29.41
2023-09-08T17:37:24.560Z,29.66
2023-09-08T17:39:51.340Z,29.52
2023-09-08T17:42:18.142Z,29.55
2023-09-08T17:44:45.526Z,29.83
2023-09-08T17:47:14.314Z,29.74
2023-09-08T17:49:41.170Z,29.50
2023-09-08T17:52:08.081Z,29.46
2023-09-08T17:54:35.116Z,29.49
2023-09-08T17:57:02.092Z,29.70
2023-09-08T17:59:28.808Z,29.95
2023-09-08T18:01:55.765Z,29.55
2023-09-08T18:04:44.196Z,29.97
2023-09-08T18:07:11.344Z,29.46
2023-09-08T18:09:38.343Z,29.74
2023-09-08T18:12:05.762Z,29.96
2023-09-08T18:14:32.571Z,30.00
2023-09-08T18:16:59.563Z,29.43
2023-09-08T18:19:26.357Z,29.23
2023-09-08T18:21:53.136Z,29.62
2023-09-08T18:24:19.838Z,29.78
2023-09-08T18:26:46.784Z,29.30
2023-09-08T18:29:13.534Z,29.65
2023-09-08T18:31:42.159Z,29.75
2023-09-08T18:34:09.959Z,29.53
2023-09-08T18:36:38.344Z,29.71
2023-09-08T18:39:10.813Z,29.84
2023-09-08T18:41:39.239Z,29.84
2023-09-08T18:44:06.106Z,29.60
2023-09-08T18:46:33.671Z,29.73
2023-09-08T18:49:00.410Z,30.23
2023-09-08T18:51:27.235Z,30.54
2023-09-08T18:53:58.204Z,30.53
2023-09-08T18:56:24.910Z,30.34
2023-09-08T18:58:51.782Z,30.44
2023-09-08T19:01:19.038Z,30.69
2023-09-08T19:03:45.942Z,30.64
2023-09-08T19:06:12.947Z,30.81
2023-09-08T19:08:39.889Z,31.04
2023-09-08T19:11:06.856Z,31.23
2023-09-08T19:13:33.717Z,31.06
2023-09-08T19:16:00.649Z,31.34
2023-09-08T19:18:27.540Z,31.01
2023-09-08T19:20:57.266Z,31.34
2023-09-08T19:23:24.481Z,31.74
2023-09-08T19:25:52.661Z,31.78
2023-09-08T19:28:19.526Z,31.90
2023-09-08T19:30:49.111Z,32.18
2023-09-08T19:33:17.700Z,32.03
2023-09-08T19:35:45.953Z,32.31
2023-09-08T19:38:12.914Z,32.26
2023-09-08T19:40:40.108Z,32.54
2023-09-08T19:43:07.410Z,32.33
2023-09-08T19:45:37.455Z,33.05
2023-09-08T19:48:06.755Z,33.07
2023-09-08T19:50:34.156Z,32.78
2023-09-08T19:53:01.000Z,32.98
2023-09-08T19:55:28.274Z,33.17
2023-09-08T19:57:55.173Z,33.13
2023-09-08T20:00:22.397Z,33.43
2023-09-08T20:02:49.254Z,33.43
2023-09-08T20:05:16.512Z,33.96
2023-09-08T20:07:44.939Z,34.03
2023-09-08T20:10:12.756Z,34.09
2023-09-08T20:12:42.429Z,34.12
2023-09-08T20:15:10.065Z,34.34
2023-09-08T20:17:37.007Z,34.14
2023-09-08T20:20:04.190Z,34.17
2023-09-08T20:22:31.289Z,34.55
2023-09-08T20:24:58.183Z,34.71
2023-09-08T20:27:26.448Z,34.37
2023-09-08T20:29:57.069Z,34.86
2023-09-08T20:32:25.106Z,34.67
2023-09-08T20:34:52.082Z,35.29
2023-09-08T20:37:19.992Z,34.81
2023-09-08T20:39:46.895Z,34.94
2023-09-08T20:42:13.892Z,35.22
2023-09-08T20:44:41.230Z,35.70
2023-09-08T20:47:08.658Z,35.73
2023-09-08T20:49:35.557Z,35.72
2023-09-08T20:52:02.442Z,35.66
2023-09-08T20:54:29.855Z,35.58
2023-09-08T20:56:57.295Z,36.13
2023-09-08T20:59:42.722Z,35.79
2023-09-08T21:02:10.116Z,36.10
2023-09-08T21:04:36.912Z,36.08
2023-09-08T21:07:05.354Z,36.31
2023-09-08T21:09:32.098Z,36.20
2023-09-08T21:11:59.006Z,36.36
2023-09-08T21:14:25.743Z,36.63
2023-09-08T21:16:52.572Z,36.69
2023-09-08T21:19:20.739Z,36.63
2023-09-08T21:21:47.914Z,36.76
2023-09-08T21:24:14.751Z,36.51
2023-09-08T21:26:41.719Z,36.71
2023-09-08T21:29:10.079Z,36.69
2023-09-08T21:31:37.432Z,36.55
2023-09-08T21:34:04.837Z,36.59
2023-09-08T21:36:32.140Z,36.91
2023-09-08T21:39:01.260Z,36.99
2023-09-08T21:41:29.798Z,37.16
2023-09-08T21:43:56.976Z,36.88
2023-09-08T21:46:23.848Z,37.27
2023-09-08T21:48:50.644Z,37.06
2023-09-08T21:51:17.582Z,37.39
2023-09-08T21:53:44.500Z,36.97
2023-09-08T21:56:11.415Z,37.24
2023-09-08T21:58:39.909Z,37.26
2023-09-08T22:01:08.312Z,37.25
2023-09-08T22:03:35.633Z,37.36
2023-09-08T22:06:03.536Z,37.63
2023-09-08T22:08:30.525Z,37.86
2023-09-08T22:11:06.199Z,38.09
2023-09-08T22:13:52.166Z,37.95
2023-09-08T22:16:19.173Z,38.14
2023-09-08T22:18:46.128Z,38.40
2023-09-08T22:21:32.705Z,38.08
2023-09-08T22:23:59.708Z,38.12
2023-09-08T22:26:26.597Z,38.13
2023-09-08T22:28:53.525Z,38.24
2023-09-08T22:31:20.367Z,38.35
2023-09-08T22:33:48.641Z,38.15
2023-09-08T22:36:15.803Z,38.28
2023-09-08T22:38:42.763Z,38.54
2023-09-08T22:41:09.645Z,38.77
2023-09-08T22:43:36.755Z,39.21
2023-09-08T22:46:04.263Z,39.10
2023-09-08T22:48:32.449Z,39.18
2023-09-08T22:51:00.309Z,39.30
2023-09-08T22:53:28.571Z,39.21
2023-09-08T22:55:55.387Z,39.35
2023-09-08T22:58:22.397Z,39.32
2023-09-08T23:00:49.199Z,39.39
2023-09-08T23:03:16.053Z,39.35
2023-09-08T23:05:43.588Z,39.15
2023-09-08T23:08:10.838Z,39.45
2023-09-08T23:10:37.563Z,39.42
2023-09-08T23:13:04.433Z,39.42
2023-09-08T23:15:31.202Z,39.34
2023-09-08T23:17:58.335Z,39.35
2023-09-08T23:20:25.268Z,39.40
2023-09-08T23:22:52.013Z,39.39
2023-09-08T23:25:18.763Z,39.34
2023-09-08T23:27:45.702Z,39.37
2023-09-08T23:30:13.114Z,39.52
2023-09-08T23:32:41.024Z,39.51
2023-09-08T23:35:09.564Z,39.39
2023-09-08T23:37:36.473Z,39.56
2023-09-08T23:40:05.987Z,39.75
2023-09-08T23:42:32.779Z,39.65
2023-09-08T23:44:59.566Z,39.64
2023-09-08T23:47:26.466Z,39.82
2023-09-08T23:49:53.203Z,39.97
2023-09-08T23:52:20.108Z,40.19
2023-09-08T23:54:46.799Z,40.00
2023-09-08T23:57:32.264Z,39.70
2023-09-08T23:59:59.162Z,40.05
